createdAt,value
2023-06-07T00:00:38.349Z,101209.47
2023-06-07T00:03:10.500Z,101221.13
2023-06-07T00:05:40.315Z,101226.81
2023-06-07T00:08:08.698Z,101221.63
2023-06-07T00:10:38.162Z,101228.97
2023-06-07T00:13:06.568Z,101220.44
2023-06-07T00:15:34.292Z,101218.72
2023-06-07T00:18:02.568Z,101225.94
2023-06-07T00:20:31.925Z,101206.41
2023-06-07T00:22:59.665Z,101216.69
2023-06-07T00:25:28.618Z,101214.94
2023-06-07T00:27:57.849Z,101230.38
2023-06-07T00:30:25.647Z,101251.22
2023-06-07T00:32:53.452Z,101261.16
2023-06-07T00:35:21.239Z,101271.00
2023-06-07T00:37:48.962Z,101277.28
2023-06-07T00:40:17.106Z,101274.00
2023-06-07T00:42:45.100Z,101283.84
2023-06-07T00:45:14.431Z,101284.72
2023-06-07T00:47:42.985Z,101283.84
2023-06-07T00:50:12.433Z,101305.34
2023-06-07T00:52:41.302Z,101290.22
2023-06-07T00:55:11.050Z,101305.56
2023-06-07T00:57:39.480Z,101312.78
2023-06-07T01:00:11.110Z,101303.84
2023-06-07T01:02:40.771Z,101296.06
2023-06-07T01:05:09.416Z,101293.53
2023-06-07T01:07:37.379Z,101285.00
2023-06-07T01:10:07.525Z,101295.81
2023-06-07T01:12:35.803Z,101285.56
2023-06-07T01:15:05.355Z,101282.56
2023-06-07T01:17:33.931Z,101280.81
2023-06-07T01:20:06.455Z,101272.72
2023-06-07T01:22:35.821Z,101286.22
2023-06-07T01:25:05.757Z,101272.94
2023-06-07T01:27:34.726Z,101265.16
2023-06-07T01:30:03.484Z,101258.13
2023-06-07T01:32:32.408Z,101255.63
2023-06-07T01:35:00.630Z,101262.19
2023-06-07T01:37:29.094Z,101274.28
2023-06-07T01:39:58.632Z,101283.56
2023-06-07T01:42:28.601Z,101286.81
2023-06-07T01:44:57.311Z,101300.69
2023-06-07T01:47:25.634Z,101302.94
2023-06-07T01:49:53.582Z,101301.31
2023-06-07T01:52:21.577Z,101302.47
2023-06-07T01:54:50.163Z,101315.41
2023-06-07T01:57:26.485Z,101332.69
2023-06-07T02:00:08.826Z,101326.59
2023-06-07T02:02:46.080Z,101330.47
2023-06-07T02:05:18.954Z,101323.94
2023-06-07T02:07:50.432Z,101323.34
2023-06-07T02:10:21.418Z,101341.34
2023-06-07T02:12:51.748Z,101349.44
2023-06-07T02:15:21.077Z,101357.63
2023-06-07T02:17:58.572Z,101343.56
2023-06-07T02:20:27.505Z,101345.63
2023-06-07T02:22:56.083Z,101359.19
2023-06-07T02:25:24.106Z,101355.63
2023-06-07T02:27:52.640Z,101361.97
2023-06-07T02:30:22.296Z,101382.47
2023-06-07T02:32:50.887Z,101384.03
2023-06-07T02:35:20.091Z,101384.88
2023-06-07T02:37:48.196Z,101408.97
2023-06-07T02:40:16.834Z,101397.41
2023-06-07T02:42:48.233Z,101400.75
2023-06-07T02:45:16.685Z,101398.97
2023-06-07T02:47:46.550Z,101396.13
2023-06-07T02:50:14.417Z,101400.75
2023-06-07T02:52:42.712Z,101404.44
2023-06-07T02:55:11.164Z,101417.91
2023-06-07T02:57:38.919Z,101435.81
2023-06-07T03:00:11.961Z,101426.78
2023-06-07T03:02:40.087Z,101425.81
2023-06-07T03:05:10.238Z,101436.50
2023-06-07T03:07:38.135Z,101431.03
2023-06-07T03:10:06.991Z,101434.66
2023-06-07T03:12:35.064Z,101444.38
2023-06-07T03:15:02.926Z,101439.09
2023-06-07T03:17:32.398Z,101441.59
2023-06-07T03:20:00.245Z,101444.31
2023-06-07T03:22:29.530Z,101454.13
2023-06-07T03:24:58.515Z,101458.75
2023-06-07T03:27:28.728Z,101482.75
2023-06-07T03:29:57.440Z,101475.59
2023-06-07T03:32:25.257Z,101481.72
2023-06-07T03:34:53.574Z,101479.78
2023-06-07T03:37:21.532Z,101488.66
2023-06-07T03:39:51.035Z,101485.75
2023-06-07T03:42:18.916Z,101493.84
2023-06-07T03:44:50.596Z,101491.91
2023-06-07T03:47:18.388Z,101493.84
2023-06-07T03:49:46.084Z,101501.84
2023-06-07T03:52:13.944Z,101510.72
2023-06-07T03:54:41.827Z,101502.50
2023-06-07T03:57:11.599Z,101498.66
2023-06-07T03:59:39.409Z,101514.63
2023-06-07T04:02:08.180Z,101508.97
2023-06-07T04:04:36.174Z,101508.00
2023-06-07T04:07:04.424Z,101505.97
2023-06-07T04:09:32.351Z,101522.53
2023-06-07T04:12:00.127Z,101519.66
2023-06-07T04:14:29.424Z,101529.25
2023-06-07T04:16:57.317Z,101513.75
2023-06-07T04:19:25.235Z,101541.44
2023-06-07T04:21:53.863Z,101520.00
2023-06-07T04:24:21.669Z,101535.91
2023-06-07T04:26:50.938Z,101528.69
2023-06-07T04:29:21.996Z,101518.66
2023-06-07T04:31:53.761Z,101512.28
2023-06-07T04:34:22.853Z,101523.66
2023-06-07T04:36:51.367Z,101531.38
2023-06-07T04:39:21.633Z,101508.69
2023-06-07T04:41:50.263Z,101522.66
2023-06-07T04:44:30.049Z,101548.28
2023-06-07T04:47:06.605Z,101562.38
2023-06-07T04:49:39.658Z,101607.78
2023-06-07T04:52:08.480Z,101525.22
2023-06-07T04:54:37.926Z,101551.66
2023-06-07T04:57:07.925Z,101541.31
2023-06-07T04:59:42.788Z,101544.38
2023-06-07T05:02:12.655Z,101560.38
2023-06-07T05:04:41.613Z,101502.00
2023-06-07T05:07:10.191Z,101568.47
2023-06-07T05:09:38.787Z,101558.25
2023-06-07T05:12:07.800Z,101521.91
2023-06-07T05:14:35.819Z,101544.88
2023-06-07T05:17:03.780Z,101533.63
2023-06-07T05:19:33.575Z,101572.19
2023-06-07T05:22:01.554Z,101569.59
2023-06-07T05:24:29.614Z,101579.91
2023-06-07T05:26:57.556Z,101556.66
2023-06-07T05:29:25.482Z,101539.16
2023-06-07T05:31:53.521Z,101568.38
2023-06-07T05:34:21.603Z,101513.53
2023-06-07T05:36:52.527Z,101485.38
2023-06-07T05:39:20.742Z,101464.13
2023-06-07T05:41:48.684Z,101458.31
2023-06-07T05:44:16.634Z,101425.63
2023-06-07T05:46:44.578Z,101509.03
2023-06-07T05:49:12.625Z,101445.03
2023-06-07T05:51:40.787Z,101435.13
2023-06-07T05:54:10.063Z,101327.56
2023-06-07T05:56:37.954Z,101340.25
2023-06-07T05:59:06.124Z,101289.50
2023-06-07T06:01:35.979Z,101212.03
2023-06-07T06:04:04.402Z,101243.44
2023-06-07T06:06:32.232Z,101259.66
2023-06-07T06:09:00.114Z,101117.94
2023-06-07T06:11:29.431Z,101207.13
2023-06-07T06:13:57.306Z,101437.53
2023-06-07T06:16:25.163Z,101425.03
2023-06-07T06:18:53.015Z,101302.19
2023-06-07T06:21:21.029Z,101283.56
2023-06-07T06:23:50.086Z,101161.91
2023-06-07T06:26:19.621Z,101008.31
2023-06-07T06:28:49.039Z,100898.50
2023-06-07T06:31:17.940Z,100846.66
2023-06-07T06:33:47.499Z,101044.22
2023-06-07T06:36:15.322Z,101028.09
2023-06-07T06:38:43.174Z,101116.53
2023-06-07T06:41:11.231Z,100858.88
2023-06-07T06:43:39.410Z,100654.84
2023-06-07T06:46:08.783Z,100630.22
2023-06-07T06:48:38.726Z,100658.69
2023-06-07T06:51:06.604Z,100664.00
2023-06-07T06:53:34.669Z,100721.84
2023-06-07T06:56:02.676Z,100788.13
2023-06-07T06:58:32.109Z,100915.09
2023-06-07T07:01:00.162Z,100687.50
2023-06-07T07:03:29.464Z,100706.22
2023-06-07T07:05:57.338Z,100769.84
2023-06-07T07:08:25.798Z,100649.00
2023-06-07T07:10:53.915Z,100678.19
2023-06-07T07:13:22.052Z,100687.00
2023-06-07T07:15:50.066Z,100905.91
2023-06-07T07:18:18.265Z,100857.16
2023-06-07T07:20:48.059Z,100721.09
2023-06-07T07:23:16.092Z,100871.66
2023-06-07T07:25:43.947Z,100712.56
2023-06-07T07:28:11.909Z,100709.47
2023-06-07T07:30:39.952Z,100634.75
2023-06-07T07:33:07.799Z,100638.72
2023-06-07T07:35:36.708Z,100611.09
2023-06-07T07:38:06.430Z,100689.56
2023-06-07T07:40:34.450Z,100832.59
2023-06-07T07:43:02.428Z,100835.53
2023-06-07T07:45:30.272Z,100874.69
2023-06-07T07:47:58.181Z,100754.22
2023-06-07T07:50:26.251Z,100819.94
2023-06-07T07:52:56.081Z,100836.84
2023-06-07T07:55:26.170Z,100700.56
2023-06-07T07:57:54.059Z,100862.94
2023-06-07T08:00:22.771Z,100766.22
2023-06-07T08:02:50.727Z,100718.50
2023-06-07T08:05:18.675Z,100655.91
2023-06-07T08:07:46.618Z,100702.03
2023-06-07T08:10:14.536Z,100719.38
2023-06-07T08:12:44.182Z,100758.28
2023-06-07T08:15:12.874Z,100785.94
2023-06-07T08:17:41.642Z,100810.59
2023-06-07T08:20:10.709Z,100827.31
2023-06-07T08:22:39.270Z,100806.53
2023-06-07T08:25:08.357Z,100833.56
2023-06-07T08:27:36.697Z,100839.53
2023-06-07T08:30:07.615Z,100720.25
2023-06-07T08:32:36.442Z,100752.69
2023-06-07T08:35:04.989Z,100706.13
2023-06-07T08:37:33.748Z,100789.44
2023-06-07T08:40:01.732Z,100835.22
2023-06-07T08:42:29.818Z,100837.34
2023-06-07T08:44:57.906Z,100801.53
2023-06-07T08:47:29.245Z,100785.88
2023-06-07T08:49:58.903Z,100828.91
2023-06-07T08:52:27.553Z,100868.31
2023-06-07T08:55:00.352Z,100861.06
2023-06-07T08:57:32.159Z,100847.19
2023-06-07T09:00:01.533Z,100900.00
2023-06-07T09:02:31.162Z,100827.06
2023-06-07T09:05:02.775Z,100813.38
2023-06-07T09:07:30.649Z,100820.75
2023-06-07T09:09:58.553Z,100846.22
2023-06-07T09:12:26.409Z,100798.00
2023-06-07T09:14:55.677Z,100795.16
2023-06-07T09:17:24.185Z,100765.28
2023-06-07T09:19:53.641Z,100794.81
2023-06-07T09:22:26.864Z,100750.66
2023-06-07T09:24:55.868Z,100801.84
2023-06-07T09:27:31.430Z,100779.41
2023-06-07T09:30:05.866Z,100789.91
2023-06-07T09:32:38.514Z,100790.00
2023-06-07T09:35:15.372Z,100818.78
2023-06-07T09:37:44.685Z,100898.16
2023-06-07T09:40:14.728Z,100855.09
2023-06-07T09:42:43.064Z,100892.72
2023-06-07T09:45:14.799Z,100865.69
2023-06-07T09:47:43.959Z,100836.88
2023-06-07T09:50:15.293Z,100821.34
2023-06-07T09:52:43.190Z,100801.22
2023-06-07T09:55:28.596Z,100756.50
2023-06-07T09:57:57.612Z,100740.19
2023-06-07T10:00:27.413Z,100776.97
2023-06-07T10:03:06.774Z,100752.56
2023-06-07T10:05:37.195Z,100769.75
2023-06-07T10:08:06.449Z,100786.06
2023-06-07T10:10:36.047Z,100831.66
2023-06-07T10:13:06.681Z,100817.22
2023-06-07T10:15:36.653Z,100775.63
2023-06-07T10:18:14.651Z,100734.75
2023-06-07T10:20:52.625Z,100773.81
2023-06-07T10:23:30.357Z,100773.44
2023-06-07T10:26:01.587Z,100759.81
2023-06-07T10:28:34.493Z,100713.88
2023-06-07T10:31:07.190Z,100704.69
2023-06-07T10:33:35.894Z,100804.31
2023-06-07T10:36:08.892Z,100797.00
2023-06-07T10:38:37.439Z,100775.44
2023-06-07T10:41:07.142Z,100707.66
2023-06-07T10:43:36.090Z,100762.63
2023-06-07T10:46:19.295Z,100797.22
2023-06-07T10:48:48.140Z,100778.66
2023-06-07T10:51:18.162Z,100875.06
2023-06-07T10:53:53.701Z,100814.22
2023-06-07T10:56:29.230Z,100807.75
2023-06-07T10:58:59.059Z,100750.91
2023-06-07T11:01:28.066Z,100798.06
2023-06-07T11:03:56.296Z,100723.47
2023-06-07T11:06:25.953Z,100771.03
2023-06-07T11:09:20.409Z,100768.00
2023-06-07T11:11:48.436Z,100813.66
2023-06-07T11:14:16.514Z,100757.19
2023-06-07T11:16:44.698Z,100757.88
2023-06-07T11:19:14.897Z,100759.34
2023-06-07T11:22:09.093Z,100749.94
2023-06-07T11:24:39.076Z,100815.00
2023-06-07T11:27:15.382Z,100725.91
2023-06-07T11:29:44.819Z,100800.00
2023-06-07T11:32:13.112Z,100733.44
2023-06-07T11:34:41.195Z,100712.94
2023-06-07T11:37:17.592Z,100685.56
2023-06-07T11:39:46.584Z,100711.63
2023-06-07T11:42:14.659Z,100764.63
2023-06-07T11:44:43.571Z,100766.03
2023-06-07T11:47:11.876Z,100733.19
2023-06-07T11:49:43.212Z,100701.47
2023-06-07T11:52:11.200Z,100685.31
2023-06-07T11:54:46.448Z,100669.31
2023-06-07T11:57:14.911Z,100730.19
2023-06-07T11:59:44.072Z,100697.81
2023-06-07T12:02:13.124Z,100663.06
2023-06-07T12:04:45.466Z,100740.34
2023-06-07T12:07:22.433Z,100665.41
2023-06-07T12:09:54.585Z,100737.84
2023-06-07T12:12:24.668Z,100740.19
2023-06-07T12:15:01.492Z,100720.91
2023-06-07T12:17:35.603Z,100716.56
2023-06-07T12:20:10.613Z,100724.50
2023-06-07T12:22:38.562Z,100737.16
2023-06-07T12:25:15.139Z,100681.81
2023-06-07T12:27:46.640Z,100722.91
2023-06-07T12:30:14.729Z,100738.50
2023-06-07T12:32:44.491Z,100695.25
2023-06-07T12:35:13.651Z,100696.09
2023-06-07T12:37:41.934Z,100724.59
2023-06-07T12:40:11.763Z,100710.59
2023-06-07T12:42:41.560Z,100679.63
2023-06-07T12:45:10.861Z,100653.44
2023-06-07T12:47:38.926Z,100697.25
2023-06-07T12:50:07.547Z,100699.31
2023-06-07T12:52:35.600Z,100721.56
2023-06-07T12:55:04.047Z,100678.97
2023-06-07T12:57:33.661Z,100714.63
2023-06-07T13:00:01.555Z,100718.44
2023-06-07T13:02:30.194Z,100700.31
2023-06-07T13:04:58.174Z,100714.13
2023-06-07T13:07:26.254Z,100722.78
2023-06-07T13:09:54.170Z,100723.31
2023-06-07T13:12:22.072Z,100720.78
2023-06-07T13:14:51.309Z,100724.63
2023-06-07T13:17:19.429Z,100665.41
2023-06-07T13:19:47.677Z,100650.47
2023-06-07T13:22:15.747Z,100740.19
2023-06-07T13:24:44.010Z,100716.69
2023-06-07T13:27:11.974Z,100709.88
2023-06-07T13:29:40.331Z,100734.78
2023-06-07T13:32:10.330Z,100689.38
2023-06-07T13:34:38.318Z,100743.22
2023-06-07T13:37:06.707Z,100731.84
2023-06-07T13:39:35.196Z,100733.16
2023-06-07T13:42:04.938Z,100675.25
2023-06-07T13:44:32.718Z,100707.56
2023-06-07T13:47:04.284Z,100703.72
2023-06-07T13:49:34.896Z,100753.59
2023-06-07T13:52:03.393Z,100679.34
2023-06-07T13:54:33.202Z,100645.78
2023-06-07T13:57:01.688Z,100702.59
2023-06-07T13:59:30.145Z,100688.00
2023-06-07T14:01:58.759Z,100644.16
2023-06-07T14:04:28.110Z,100728.47
2023-06-07T14:06:57.523Z,100753.69
2023-06-07T14:09:25.514Z,100690.19
2023-06-07T14:11:53.407Z,100781.03
2023-06-07T14:14:21.599Z,100692.00
2023-06-07T14:16:50.509Z,100695.41
2023-06-07T14:19:18.502Z,100684.59
2023-06-07T14:21:46.492Z,100646.16
2023-06-07T14:24:15.959Z,100647.19
2023-06-07T14:26:44.267Z,100658.88
2023-06-07T14:29:12.237Z,100645.94
2023-06-07T14:31:41.074Z,100673.34
2023-06-07T14:34:09.041Z,100659.25
2023-06-07T14:36:37.534Z,100670.88
2023-06-07T14:39:06.351Z,100674.38
2023-06-07T14:41:35.705Z,100626.69
2023-06-07T14:44:03.919Z,100679.75
2023-06-07T14:46:31.789Z,100656.88
2023-06-07T14:48:59.716Z,100591.97
2023-06-07T14:51:31.111Z,100638.88
2023-06-07T14:53:59.004Z,100663.75
2023-06-07T14:56:28.161Z,100659.59
2023-06-07T14:58:57.546Z,100688.59
2023-06-07T15:01:26.396Z,100688.31
2023-06-07T15:03:55.666Z,100702.91
2023-06-07T15:06:23.608Z,100713.28
2023-06-07T15:08:54.593Z,100723.47
2023-06-07T15:11:22.708Z,100660.00
2023-06-07T15:13:50.669Z,100705.16
2023-06-07T15:16:20.167Z,100757.00
2023-06-07T15:18:47.970Z,100651.72
2023-06-07T15:21:15.720Z,100672.84
2023-06-07T15:23:43.756Z,100677.66
2023-06-07T15:26:11.846Z,100686.84
2023-06-07T15:28:39.778Z,100650.72
2023-06-07T15:31:07.748Z,100675.84
2023-06-07T15:33:36.999Z,100652.03
2023-06-07T15:36:08.422Z,100694.47
2023-06-07T15:38:38.835Z,100640.28
2023-06-07T15:43:44.096Z,100664.59
2023-06-07T15:46:13.150Z,100657.84
2023-06-07T15:48:49.015Z,100661.84
2023-06-07T15:51:17.109Z,100617.84
2023-06-07T15:53:47.573Z,100664.75
2023-06-07T15:56:15.712Z,100678.28
2023-06-07T15:58:44.100Z,100692.16
2023-06-07T16:01:12.333Z,100654.25
2023-06-07T16:03:54.928Z,100671.19
2023-06-07T16:06:26.275Z,100711.91
2023-06-07T16:08:54.378Z,100720.06
2023-06-07T16:11:22.795Z,100734.34
2023-06-07T16:13:50.786Z,100699.69
2023-06-07T16:16:19.282Z,100706.63
2023-06-07T16:18:48.430Z,100701.88
2023-06-07T16:21:17.835Z,100689.84
2023-06-07T16:23:47.272Z,100677.63
2023-06-07T16:26:15.522Z,100638.28
2023-06-07T16:28:43.650Z,100694.19
2023-06-07T16:31:11.620Z,100700.25
2023-06-07T16:33:39.555Z,100689.63
2023-06-07T16:36:08.674Z,100691.59
2023-06-07T16:38:37.013Z,100699.66
2023-06-07T16:41:09.266Z,100674.69
2023-06-07T16:43:40.562Z,100683.09
2023-06-07T16:46:18.979Z,100661.06
2023-06-07T16:48:47.065Z,100667.28
2023-06-07T16:51:15.096Z,100679.53
2023-06-07T16:53:43.312Z,100657.63
2023-06-07T16:56:12.905Z,100677.22
2023-06-07T16:58:41.224Z,100711.88
2023-06-07T17:01:10.140Z,100745.19
2023-06-07T17:03:38.293Z,100744.97
2023-06-07T17:06:07.398Z,100742.75
2023-06-07T17:08:35.552Z,100744.75
2023-06-07T17:11:06.252Z,100735.31
2023-06-07T17:13:36.200Z,100723.13
2023-06-07T17:16:04.298Z,100724.63
2023-06-07T17:18:32.328Z,100738.78
2023-06-07T17:21:00.284Z,100712.47
2023-06-07T17:23:28.309Z,100678.44
2023-06-07T17:25:56.388Z,100737.13
2023-06-07T17:28:24.357Z,100728.41
2023-06-07T17:30:54.109Z,100737.44
2023-06-07T17:33:22.191Z,100726.16
2023-06-07T17:35:50.188Z,100713.56
2023-06-07T17:38:18.822Z,100720.09
2023-06-07T17:40:47.092Z,100725.41
2023-06-07T17:43:15.862Z,100744.06
2023-06-07T17:45:43.897Z,100748.06
2023-06-07T17:48:14.871Z,100744.34
2023-06-07T17:50:46.881Z,100768.81
2023-06-07T17:53:15.872Z,100748.81
2023-06-07T17:55:53.445Z,100755.66
2023-06-07T17:58:21.724Z,100781.66
2023-06-07T18:00:50.967Z,100772.66
2023-06-07T18:03:21.416Z,100779.09
2023-06-07T18:05:49.577Z,100790.25
2023-06-07T18:08:17.455Z,100797.06
2023-06-07T18:10:45.542Z,100797.78
2023-06-07T18:13:13.431Z,100809.56
2023-06-07T18:15:41.522Z,100811.94
2023-06-07T18:18:09.647Z,100805.81
2023-06-07T18:20:38.961Z,100818.25
2023-06-07T18:23:07.029Z,100819.22
2023-06-07T18:25:34.951Z,100806.56
2023-06-07T18:28:02.886Z,100809.97
2023-06-07T18:30:30.902Z,100814.75
2023-06-07T18:32:58.905Z,100794.75
2023-06-07T18:35:26.980Z,100816.56
2023-06-07T18:37:56.699Z,100814.75
2023-06-07T18:40:24.796Z,100838.03
2023-06-07T18:42:52.688Z,100842.56
2023-06-07T18:45:20.714Z,100841.75
2023-06-07T18:47:48.713Z,100864.38
2023-06-07T18:50:17.992Z,100874.28
2023-06-07T18:52:46.048Z,100844.38
2023-06-07T18:55:15.553Z,100872.72
2023-06-07T18:57:43.668Z,100862.06
2023-06-07T19:00:12.491Z,100877.31
2023-06-07T19:02:40.761Z,100886.88
2023-06-07T19:05:09.641Z,100900.28
2023-06-07T19:07:38.071Z,100894.72
2023-06-07T19:10:07.072Z,100901.78
2023-06-07T19:12:36.682Z,100892.44
2023-06-07T19:15:06.656Z,100899.47
2023-06-07T19:17:35.069Z,100906.06
2023-06-07T19:20:03.473Z,100903.50
2023-06-07T19:22:31.590Z,100912.81
2023-06-07T19:24:59.593Z,100917.03
2023-06-07T19:27:30.477Z,100911.75
2023-06-07T19:29:59.834Z,100920.50
2023-06-07T19:32:30.638Z,100933.72
2023-06-07T19:34:59.078Z,100938.63
2023-06-07T19:37:27.392Z,100948.25
2023-06-07T19:39:58.145Z,100943.41
2023-06-07T19:42:27.799Z,100941.53
2023-06-07T19:44:55.957Z,100943.81
2023-06-07T19:47:25.785Z,100946.97
2023-06-07T19:49:53.952Z,100956.16
2023-06-07T19:52:22.016Z,100957.03
2023-06-07T19:54:50.692Z,100959.63
2023-06-07T19:57:19.171Z,100959.06
2023-06-07T19:59:50.136Z,100963.91
2023-06-07T20:02:20.712Z,100968.63
2023-06-07T20:04:50.657Z,100974.50
2023-06-07T20:07:18.953Z,100973.94
2023-06-07T20:09:47.490Z,100977.81
2023-06-07T20:12:15.640Z,100979.94
2023-06-07T20:14:43.667Z,100988.81
2023-06-07T20:17:12.240Z,100984.06
2023-06-07T20:19:40.460Z,100986.25
2023-06-07T20:22:10.208Z,100991.97
2023-06-07T20:24:38.170Z,101000.22
2023-06-07T20:27:06.737Z,101004.97
2023-06-07T20:29:34.940Z,101008.53
2023-06-07T20:32:03.075Z,101021.41
2023-06-07T20:34:31.267Z,101029.84
2023-06-07T20:36:59.135Z,101038.69
2023-06-07T20:39:28.504Z,101030.97
2023-06-07T20:41:57.523Z,101040.09
2023-06-07T20:44:30.927Z,101047.81
2023-06-07T20:47:08.162Z,101046.66
2023-06-07T20:49:36.276Z,101054.47
2023-06-07T20:52:04.390Z,101068.25
2023-06-07T20:54:33.963Z,101065.19
2023-06-07T20:57:01.912Z,101077.72
2023-06-07T20:59:32.066Z,101070.38
2023-06-07T21:02:01.440Z,101083.00
2023-06-07T21:04:29.559Z,101083.53
2023-06-07T21:06:58.826Z,101084.59
2023-06-07T21:09:27.047Z,101100.84
2023-06-07T21:11:56.837Z,101121.34
2023-06-07T21:14:24.682Z,101111.78
2023-06-07T21:16:52.704Z,101114.00
2023-06-07T21:19:20.761Z,101089.56
2023-06-07T21:21:48.721Z,101095.00
2023-06-07T21:24:16.749Z,101101.91
2023-06-07T21:26:44.964Z,101099.47
2023-06-07T21:29:14.677Z,101105.66
2023-06-07T21:31:43.563Z,101119.72
2023-06-07T21:34:13.982Z,101116.75
2023-06-07T21:36:42.674Z,101128.56
2023-06-07T21:39:12.173Z,101129.78
2023-06-07T21:41:43.582Z,101129.63
2023-06-07T21:44:11.864Z,101153.63
2023-06-07T21:46:41.400Z,101152.16
2023-06-07T21:49:09.611Z,101169.72
2023-06-07T21:51:40.611Z,101160.50
2023-06-07T21:54:09.234Z,101153.63
2023-06-07T21:56:42.507Z,101164.69
2023-06-07T21:59:11.204Z,101165.06
2023-06-07T22:01:42.319Z,101153.59
2023-06-07T22:04:10.656Z,101139.69
2023-06-07T22:06:44.679Z,101144.13
2023-06-07T22:09:15.315Z,101160.25
2023-06-07T22:11:46.645Z,101155.03
2023-06-07T22:14:15.549Z,101165.56
2023-06-07T22:16:51.316Z,101153.44
2023-06-07T22:19:20.953Z,101168.06
2023-06-07T22:21:49.761Z,101169.94
2023-06-07T22:24:19.184Z,101176.69
2023-06-07T22:26:50.189Z,101177.75
2023-06-07T22:29:18.823Z,101184.16
2023-06-07T22:31:48.744Z,101190.06
2023-06-07T22:34:19.291Z,101183.56
2023-06-07T22:36:50.452Z,101180.50
2023-06-07T22:39:21.224Z,101177.69
2023-06-07T22:41:53.241Z,101172.72
2023-06-07T22:44:21.607Z,101159.25
2023-06-07T22:46:52.677Z,101159.25
2023-06-07T22:49:23.824Z,101145.59
2023-06-07T22:51:54.629Z,101161.53
2023-06-07T22:54:28.852Z,101163.72
2023-06-07T22:56:58.496Z,101181.28
2023-06-07T22:59:26.879Z,101193.16
2023-06-07T23:02:00.769Z,101193.75
2023-06-07T23:04:29.172Z,101191.03
2023-06-07T23:06:59.425Z,101183.50
2023-06-07T23:09:27.987Z,101197.66
2023-06-07T23:12:00.368Z,101202.09
2023-06-07T23:14:29.659Z,101192.34
2023-06-07T23:17:02.456Z,101221.88
2023-06-07T23:19:30.849Z,101215.28
2023-06-07T23:21:59.973Z,101213.00
2023-06-07T23:24:31.116Z,101194.88
2023-06-07T23:27:00.318Z,101197.81
2023-06-07T23:29:28.982Z,101200.38
2023-06-07T23:31:59.300Z,101209.47
2023-06-07T23:34:28.893Z,101205.50
2023-06-07T23:36:57.005Z,101214.81
2023-06-07T23:39:25.208Z,101219.13
2023-06-07T23:41:55.885Z,101217.94
2023-06-07T23:44:27.505Z,101231.97
2023-06-07T23:46:56.968Z,101227.91
2023-06-07T23:49:35.910Z,101243.34
2023-06-07T23:52:06.157Z,101228.56
2023-06-07T23:54:36.928Z,101226.56
2023-06-07T23:57:10.795Z,101252.06
2023-06-07T23:59:41.194Z,101249.50
